Secor, Illinois
Current Conditions -  °F | °C
As of 6:56 PM on Wednesday 17 Dec 2014 (Local Time) from KBMI Reporting Station
Overcast Overcast  
Wind Chill: 18°   Ceiling: 1900
Heat Index: 25°   Visibility: 10mi
Dew Point: 21°   Wind: 6mph
Humidity: 84%   Direction: 240°WSW
Pressure: 30.3"   Gusts: NA
Location:  40.74°N, 89.14°W
Report Text: KBMI 180056Z 24005KT 10SM OVC019 M04/M06 A3030 RMK AO2 T10381061 SLP283
Loading
Personal Weather Stations






























Interactive Weather Map New forecast layout! Learn more

10-Day Weather Forecast

Advertisements
Track Severe Weather on mobile